Time;durP1;ratioP1;P1;durP2;ratioP2;P2;SDS_P1;SDS_P2;PMS_P1;PMS_P2;Temp;Humidity;BMP_temperature;BMP_pressure;BME280_temperature;BME280_humidity;BME280_pressure;Samples;Min_cycle;Max_cycle;Signal;HPM_P1;HPM_P2
2021/07/09 00:02:38;;;;;;;14.70;9.68;;;;;;;;;;5065928;28;20380;-90
2021/07/09 00:05:03;;;;;;;12.70;9.60;;;;;;;;;;5052378;28;20465;-91
2021/07/09 00:07:28;;;;;;;12.65;8.80;;;;;;;;;;5066307;28;20368;-91
2021/07/09 00:09:54;;;;;;;12.50;9.35;;;;;;;;;;5052024;28;20120;-91
2021/07/09 00:12:19;;;;;;;14.85;8.60;;;;;;;;;;5066226;28;20021;-90
2021/07/09 00:14:45;;;;;;;12.35;8.73;;;;;;;;;;5061466;28;20234;-90
2021/07/09 00:17:10;;;;;;;12.75;8.73;;;;;;;;;;5071997;28;20020;-91
2021/07/09 00:19:35;;;;;;;10.65;8.52;;;;;;;;;;5072181;28;20360;-90
2021/07/09 00:22:01;;;;;;;14.15;9.20;;;;;;;;;;5062694;28;20033;-91
2021/07/09 00:24:27;;;;;;;15.00;10.20;;;;;;;;;;5056205;28;20036;-90
2021/07/09 00:26:52;;;;;;;11.15;9.15;;;;;;;;;;5055910;28;20440;-90
2021/07/09 00:29:17;;;;;;;12.30;8.38;;;;;;;;;;5055792;28;20526;-90
2021/07/09 00:31:42;;;;;;;9.52;8.48;;;;;;;;;;5056047;28;20476;-90
2021/07/09 00:34:08;;;;;;;13.93;8.48;;;;;;;;;;5056127;28;20051;-90
2021/07/09 00:36:34;;;;;;;15.30;8.65;;;;;;;;;;5056189;28;20029;-90
2021/07/09 00:39:00;;;;;;;10.10;8.15;;;;;;;;;;5055770;28;20445;-90
2021/07/09 00:41:26;;;;;;;11.57;7.68;;;;;;;;;;5057125;28;20457;-91
2021/07/09 00:43:51;;;;;;;10.38;7.90;;;;;;;;;;5055603;28;20051;-90
2021/07/09 00:46:27;;;;;;;9.82;8.02;;;;;;;;;;5056391;28;20028;-90
2021/07/09 00:48:52;;;;;;;17.35;8.98;;;;;;;;;;5055655;28;20021;-91
2021/07/09 00:51:18;;;;;;;9.85;8.30;;;;;;;;;;5056827;28;20021;-90
2021/07/09 00:53:43;;;;;;;13.82;8.13;;;;;;;;;;5054932;28;20025;-90
2021/07/09 00:56:08;;;;;;;12.32;9.15;;;;;;;;;;5055284;28;20379;-91
2021/07/09 00:58:33;;;;;;;12.93;8.93;;;;;;;;;;5052385;28;20027;-90
2021/07/09 01:00:58;;;;;;;11.23;8.70;;;;;;;;;;5051094;28;20017;-90
2021/07/09 01:03:24;;;;;;;14.15;7.63;;;;;;;;;;5055522;28;20025;-90
2021/07/09 01:05:49;;;;;;;12.55;8.32;;;;;;;;;;5055868;28;20495;-90
2021/07/09 01:08:15;;;;;;;13.20;8.55;;;;;;;;;;5055199;28;20090;-90
2021/07/09 01:10:41;;;;;;;12.45;8.60;;;;;;;;;;5055523;28;20071;-90
2021/07/09 01:13:06;;;;;;;11.85;8.73;;;;;;;;;;5055053;28;20017;-91
2021/07/09 01:15:31;;;;;;;15.35;9.63;;;;;;;;;;5056540;28;20453;-90
2021/07/09 01:17:57;;;;;;;16.70;9.57;;;;;;;;;;5055361;28;20029;-91
2021/07/09 01:20:22;;;;;;;16.98;10.23;;;;;;;;;;5055227;28;20024;-90
2021/07/09 01:22:48;;;;;;;15.10;10.40;;;;;;;;;;5077184;28;20025;-90
2021/07/09 01:25:20;;;;;;;15.18;9.18;;;;;;;;;;5054497;28;20017;-91
2021/07/09 01:27:45;;;;;;;;;;;;;;;;;;5055451;28;20036;-91
2021/07/09 01:30:13;;;;;;;12.60;8.98;;;;;;;;;;5054838;28;19904;-90
2021/07/09 01:32:38;;;;;;;19.00;9.73;;;;;;;;;;5051502;28;20353;-90
2021/07/09 01:35:04;;;;;;;13.52;9.35;;;;;;;;;;5048433;28;20044;-91
2021/07/09 01:37:29;;;;;;;18.77;9.82;;;;;;;;;;5054718;28;20495;-90
2021/07/09 01:39:55;;;;;;;13.13;8.35;;;;;;;;;;5054827;28;20048;-90
2021/07/09 01:42:20;;;;;;;10.93;8.57;;;;;;;;;;5054569;28;20064;-91
2021/07/09 01:44:45;;;;;;;11.32;8.63;;;;;;;;;;5054744;28;20044;-90
2021/07/09 01:47:10;;;;;;;13.73;9.50;;;;;;;;;;5054450;28;20024;-91
2021/07/09 01:49:55;;;;;;;13.05;9.38;;;;;;;;;;5054775;28;20040;-90
2021/07/09 01:52:21;;;;;;;16.33;8.52;;;;;;;;;;5054384;28;20102;-90
2021/07/09 01:54:46;;;;;;;10.82;7.95;;;;;;;;;;5054453;28;20145;-90
2021/07/09 01:57:12;;;;;;;15.32;8.20;;;;;;;;;;5056044;28;20081;-90
2021/07/09 01:59:38;;;;;;;11.70;8.50;;;;;;;;;;5054501;28;20017;-90
2021/07/09 02:02:03;;;;;;;9.50;7.63;;;;;;;;;;5054360;28;20473;-90
2021/07/09 02:04:29;;;;;;;15.27;7.00;;;;;;;;;;5054304;28;20032;-90
2021/07/09 02:06:54;;;;;;;15.45;7.45;;;;;;;;;;5054131;28;20017;-91
2021/07/09 02:09:19;;;;;;;10.70;7.72;;;;;;;;;;5054246;28;20032;-90
2021/07/09 02:11:44;;;;;;;15.93;8.35;;;;;;;;;;5054243;28;20021;-90
2021/07/09 02:14:10;;;;;;;15.30;8.55;;;;;;;;;;5054316;28;20464;-90
2021/07/09 02:16:35;;;;;;;13.95;8.82;;;;;;;;;;5054376;28;20052;-90
2021/07/09 02:19:00;;;;;;;13.93;8.40;;;;;;;;;;5054085;28;20040;-90
2021/07/09 02:21:25;;;;;;;10.55;7.55;;;;;;;;;;5054070;28;20041;-90
2021/07/09 02:23:50;;;;;;;10.32;7.68;;;;;;;;;;5054135;28;20025;-90
2021/07/09 02:26:16;;;;;;;11.50;8.02;;;;;;;;;;5054080;28;20044;-90
2021/07/09 02:28:41;;;;;;;10.38;7.78;;;;;;;;;;5054173;28;20431;-91
2021/07/09 02:31:06;;;;;;;19.02;8.70;;;;;;;;;;5054067;28;20066;-90
2021/07/09 02:33:31;;;;;;;10.88;8.00;;;;;;;;;;5052995;28;20030;-90
2021/07/09 02:35:56;;;;;;;11.73;7.50;;;;;;;;;;5053887;28;20043;-91
2021/07/09 02:38:22;;;;;;;13.45;8.65;;;;;;;;;;5053604;28;20025;-90
2021/07/09 02:40:47;;;;;;;13.93;7.63;;;;;;;;;;5055280;28;20150;-90
2021/07/09 02:43:12;;;;;;;8.32;6.65;;;;;;;;;;5055008;28;20464;-90
2021/07/09 02:45:38;;;;;;;14.15;7.93;;;;;;;;;;5052936;28;20064;-90
2021/07/09 02:48:03;;;;;;;16.27;8.13;;;;;;;;;;5053646;28;20021;-90
2021/07/09 02:50:28;;;;;;;14.50;8.70;;;;;;;;;;5053568;28;20216;-90
2021/07/09 02:52:53;;;;;;;12.02;9.25;;;;;;;;;;5051704;28;20043;-90
2021/07/09 02:55:19;;;;;;;14.35;9.93;;;;;;;;;;5053034;28;20412;-90
2021/07/09 02:57:45;;;;;;;12.80;9.45;;;;;;;;;;5053423;28;20514;-90
2021/07/09 03:00:11;;;;;;;13.40;8.48;;;;;;;;;;5054582;28;20017;-90
2021/07/09 03:02:37;;;;;;;17.63;8.98;;;;;;;;;;5053149;28;20044;-90
2021/07/09 03:05:02;;;;;;;12.10;8.35;;;;;;;;;;5053049;28;20461;-90
2021/07/09 03:07:28;;;;;;;13.43;8.48;;;;;;;;;;5054266;28;20017;-90
2021/07/09 03:09:53;;;;;;;10.75;7.45;;;;;;;;;;5054507;28;20447;-90
2021/07/09 03:12:18;;;;;;;13.43;7.85;;;;;;;;;;5053131;28;20017;-90
2021/07/09 03:14:43;;;;;;;16.13;8.80;;;;;;;;;;5052823;28;20013;-91
2021/07/09 03:17:09;;;;;;;13.88;8.57;;;;;;;;;;5054134;28;20017;-90
2021/07/09 03:19:34;;;;;;;12.40;8.02;;;;;;;;;;5052990;28;20376;-90
2021/07/09 03:21:59;;;;;;;17.23;7.60;;;;;;;;;;5052666;28;20025;-91
2021/07/09 03:24:25;;;;;;;10.70;7.72;;;;;;;;;;5052830;28;20115;-90
2021/07/09 03:26:50;;;;;;;10.32;7.75;;;;;;;;;;5054104;28;20013;-90
2021/07/09 03:29:15;;;;;;;11.00;8.18;;;;;;;;;;5053062;28;20044;-89
2021/07/09 03:31:40;;;;;;;15.02;8.65;;;;;;;;;;5052365;28;20121;-90
2021/07/09 03:34:05;;;;;;;16.63;8.57;;;;;;;;;;5054395;28;20025;-90
2021/07/09 03:36:31;;;;;;;14.60;8.70;;;;;;;;;;5052794;28;20017;-90
2021/07/09 03:38:57;;;;;;;12.15;8.80;;;;;;;;;;5052658;28;20052;-91
2021/07/09 03:41:23;;;;;;;18.40;10.40;;;;;;;;;;5052733;28;20108;-90
2021/07/09 03:43:48;;;;;;;20.20;11.55;;;;;;;;;;5052435;28;20016;-90
2021/07/09 03:46:13;;;;;;;20.05;12.02;;;;;;;;;;5085950;28;20025;-90
2021/07/09 03:48:38;;;;;;;17.02;12.07;;;;;;;;;;5052485;28;20116;-90
2021/07/09 03:51:05;;;;;;;18.65;12.82;;;;;;;;;;5052509;28;20021;-90
2021/07/09 03:53:30;;;;;;;24.42;12.82;;;;;;;;;;5052340;28;20085;-90
2021/07/09 03:55:55;;;;;;;18.38;12.52;;;;;;;;;;5085627;28;20021;-90
2021/07/09 03:58:20;;;;;;;17.10;11.10;;;;;;;;;;5051938;28;20013;-91
2021/07/09 04:00:45;;;;;;;18.48;11.20;;;;;;;;;;5076554;28;20189;-91
2021/07/09 04:03:11;;;;;;;21.92;11.63;;;;;;;;;;5052213;28;20021;-90
2021/07/09 04:05:36;;;;;;;20.33;11.57;;;;;;;;;;5053357;28;20100;-91
2021/07/09 04:08:01;;;;;;;21.63;11.30;;;;;;;;;;5085773;28;20025;-90
2021/07/09 04:10:26;;;;;;;16.13;10.43;;;;;;;;;;5053551;28;20380;-91
2021/07/09 04:12:52;;;;;;;17.95;10.57;;;;;;;;;;5085428;28;20021;-90
2021/07/09 04:15:17;;;;;;;20.00;10.40;;;;;;;;;;5085642;28;20017;-90
2021/07/09 04:17:42;;;;;;;19.40;11.63;;;;;;;;;;5052025;28;20043;-90
2021/07/09 04:20:08;;;;;;;18.75;10.70;;;;;;;;;;5053404;28;20020;-90
2021/07/09 04:22:33;;;;;;;18.77;11.52;;;;;;;;;;5083853;28;20028;-90
2021/07/09 04:24:59;;;;;;;23.20;11.35;;;;;;;;;;5085637;28;20021;-90
2021/07/09 04:27:24;;;;;;;20.27;11.65;;;;;;;;;;5053562;28;20467;-91
2021/07/09 04:29:49;;;;;;;21.70;13.38;;;;;;;;;;5051994;28;20360;-91
2021/07/09 04:32:14;;;;;;;21.05;11.70;;;;;;;;;;5083001;28;20052;-91
2021/07/09 04:34:39;;;;;;;24.52;12.00;;;;;;;;;;5053294;28;20361;-91
2021/07/09 04:37:11;;;;;;;21.88;12.90;;;;;;;;;;5052138;28;20447;-91
2021/07/09 04:39:37;;;;;;;22.67;12.57;;;;;;;;;;5085715;28;20021;-91
2021/07/09 04:42:03;;;;;;;22.48;12.88;;;;;;;;;;5051950;28;20039;-91
2021/07/09 04:44:28;;;;;;;26.60;13.10;;;;;;;;;;5085342;28;20063;-91
2021/07/09 04:46:53;;;;;;;23.50;13.00;;;;;;;;;;5051751;28;20021;-91
2021/07/09 04:49:18;;;;;;;20.35;12.43;;;;;;;;;;5052010;28;20416;-91
2021/07/09 04:51:43;;;;;;;22.08;12.50;;;;;;;;;;5084320;28;20074;-91
2021/07/09 04:54:09;;;;;;;23.77;12.93;;;;;;;;;;5051761;28;20021;-91
2021/07/09 04:56:34;;;;;;;26.90;13.18;;;;;;;;;;5051897;28;20133;-91
2021/07/09 04:59:00;;;;;;;21.30;12.25;;;;;;;;;;5085282;28;20395;-90
2021/07/09 05:01:25;;;;;;;24.88;13.27;;;;;;;;;;5051446;28;20021;-91
2021/07/09 05:03:50;;;;;;;22.75;12.55;;;;;;;;;;5085184;28;20016;-91
2021/07/09 05:06:15;;;;;;;24.65;13.52;;;;;;;;;;5051596;28;20396;-91
2021/07/09 05:08:41;;;;;;;26.60;13.40;;;;;;;;;;5053473;28;20071;-90
2021/07/09 05:11:06;;;;;;;25.65;14.35;;;;;;;;;;5055340;28;20025;-91
2021/07/09 05:13:31;;;;;;;23.70;13.45;;;;;;;;;;5088674;28;20032;-90
2021/07/09 05:15:56;;;;;;;26.73;13.48;;;;;;;;;;5056417;28;20020;-91
2021/07/09 05:18:21;;;;;;;24.92;12.32;;;;;;;;;;5088807;28;20486;-90
2021/07/09 05:20:47;;;;;;;24.23;12.50;;;;;;;;;;5054944;28;20051;-90
2021/07/09 05:23:12;;;;;;;27.85;12.75;;;;;;;;;;5054712;28;20032;-90
2021/07/09 05:25:37;;;;;;;21.98;13.68;;;;;;;;;;5081811;28;20036;-90
2021/07/09 05:28:05;;;;;;;26.52;14.25;;;;;;;;;;5054897;28;20461;-91
2021/07/09 05:30:31;;;;;;;26.45;14.10;;;;;;;;;;5088223;28;20009;-91
2021/07/09 05:32:56;;;;;;;26.60;14.57;;;;;;;;;;5055032;28;20495;-91
2021/07/09 05:35:21;;;;;;;26.63;15.07;;;;;;;;;;5055010;28;20086;-92
2021/07/09 05:37:46;;;;;;;28.30;15.25;;;;;;;;;;5088476;28;20013;-90
2021/07/09 05:40:11;;;;;;;27.77;15.45;;;;;;;;;;5054739;28;20021;-90
2021/07/09 05:42:37;;;;;;;26.13;15.23;;;;;;;;;;5088240;28;20044;-90
2021/07/09 05:45:02;;;;;;;30.02;15.93;;;;;;;;;;5054759;28;20037;-90
2021/07/09 05:47:29;;;;;;;32.00;15.77;;;;;;;;;;5088022;28;20340;-91
2021/07/09 05:49:54;;;;;;;28.70;15.57;;;;;;;;;;5054633;28;20079;-91
2021/07/09 05:52:19;;;;;;;30.88;16.23;;;;;;;;;;5054201;28;20044;-89
2021/07/09 05:54:44;;;;;;;32.97;17.25;;;;;;;;;;5088166;28;20136;-90
2021/07/09 05:57:10;;;;;;;32.63;17.25;;;;;;;;;;5088071;28;20066;-90
2021/07/09 05:59:35;;;;;;;32.60;15.95;;;;;;;;;;5054160;28;20021;-90
2021/07/09 06:02:01;;;;;;;33.17;16.80;;;;;;;;;;5086020;28;20029;-91
2021/07/09 06:04:26;;;;;;;31.98;16.67;;;;;;;;;;5054060;28;20013;-90
2021/07/09 06:06:51;;;;;;;31.92;15.15;;;;;;;;;;5087789;28;20029;-91
2021/07/09 06:09:16;;;;;;;34.85;15.50;;;;;;;;;;5053895;28;20075;-91
2021/07/09 06:11:43;;;;;;;32.72;15.23;;;;;;;;;;5057616;28;20039;-91
2021/07/09 06:14:08;;;;;;;32.50;15.02;;;;;;;;;;5053785;28;20055;-91
2021/07/09 06:16:33;;;;;;;31.50;15.45;;;;;;;;;;5087659;28;20013;-92
2021/07/09 06:18:59;;;;;;;30.52;15.05;;;;;;;;;;5054306;28;20024;-91
2021/07/09 06:21:25;;;;;;;36.40;15.30;;;;;;;;;;5051694;28;20468;-90
2021/07/09 06:23:53;;;;;;;31.48;14.57;;;;;;;;;;5053768;28;20043;-91
2021/07/09 06:26:19;;;;;;;33.88;16.23;;;;;;;;;;5057068;28;20097;-91
2021/07/09 06:28:48;;;;;;;30.08;15.15;;;;;;;;;;5055437;28;20159;-91
2021/07/09 06:31:14;;;;;;;35.75;15.95;;;;;;;;;;5051044;28;20025;-91
2021/07/09 06:33:39;;;;;;;36.05;15.63;;;;;;;;;;5087885;28;20021;-90
2021/07/09 06:36:04;;;;;;;38.03;15.73;;;;;;;;;;5055361;28;20021;-90
2021/07/09 06:38:30;;;;;;;36.55;18.23;;;;;;;;;;5053861;28;20048;-90
2021/07/09 06:40:55;;;;;;;31.05;15.85;;;;;;;;;;5050286;28;20024;-91
2021/07/09 06:43:20;;;;;;;42.10;17.42;;;;;;;;;;5053867;28;20017;-90
2021/07/09 06:45:45;;;;;;;42.08;17.48;;;;;;;;;;5050635;28;20029;-91
2021/07/09 06:48:11;;;;;;;36.75;16.40;;;;;;;;;;5054205;28;20025;-91
2021/07/09 06:50:36;;;;;;;36.28;17.73;;;;;;;;;;5053616;28;20020;-91
2021/07/09 06:53:02;;;;;;;39.47;18.50;;;;;;;;;;5054066;28;20435;-92
2021/07/09 06:55:27;;;;;;;39.47;18.33;;;;;;;;;;5053808;28;20013;-91
2021/07/09 06:57:53;;;;;;;37.67;17.95;;;;;;;;;;5050773;28;20071;-91
2021/07/09 07:00:18;;;;;;;32.40;16.27;;;;;;;;;;5046908;28;20465;-90
2021/07/09 07:02:47;;;;;;;41.67;18.58;;;;;;;;;;5053798;28;20380;-90
2021/07/09 07:05:12;;;;;;;44.25;19.52;;;;;;;;;;5081161;28;20056;-91
2021/07/09 07:07:38;;;;;;;42.83;19.77;;;;;;;;;;5050939;28;20110;-91
2021/07/09 07:10:04;;;;;;;45.60;22.73;;;;;;;;;;5053869;28;20476;-91
2021/07/09 07:12:29;;;;;;;50.33;23.77;;;;;;;;;;5053440;28;20056;-91
2021/07/09 07:14:54;;;;;;;53.72;25.42;;;;;;;;;;5053834;28;20013;-91
2021/07/09 07:17:20;;;;;;;54.55;27.60;;;;;;;;;;5053717;28;20021;-90
2021/07/09 07:19:45;;;;;;;64.30;27.33;;;;;;;;;;5053445;28;20368;-91
2021/07/09 07:22:10;;;;;;;62.83;28.25;;;;;;;;;;5053608;28;20021;-91
2021/07/09 07:24:35;;;;;;;68.20;27.50;;;;;;;;;;5087070;28;20111;-92
2021/07/09 07:27:01;;;;;;;63.50;26.33;;;;;;;;;;5054673;28;20017;-91
2021/07/09 07:29:26;;;;;;;57.08;23.88;;;;;;;;;;5053114;28;20029;-91
2021/07/09 07:31:51;;;;;;;68.90;25.77;;;;;;;;;;5053321;28;20104;-91
2021/07/09 07:34:17;;;;;;;69.53;29.35;;;;;;;;;;5053327;28;20021;-90
2021/07/09 07:36:42;;;;;;;65.60;27.65;;;;;;;;;;5053590;28;20025;-91
2021/07/09 07:39:07;;;;;;;63.17;26.58;;;;;;;;;;5054401;28;20025;-90
2021/07/09 07:41:33;;;;;;;64.10;26.88;;;;;;;;;;5053235;28;20032;-90
2021/07/09 07:43:58;;;;;;;59.85;24.88;;;;;;;;;;5086624;28;20051;-90
2021/07/09 07:46:25;;;;;;;66.35;26.77;;;;;;;;;;5053066;28;20370;-91
2021/07/09 07:48:50;;;;;;;56.72;24.52;;;;;;;;;;5054094;28;20043;-91
2021/07/09 07:51:16;;;;;;;58.83;27.60;;;;;;;;;;5052937;28;20037;-91
2021/07/09 07:53:41;;;;;;;55.47;25.95;;;;;;;;;;5054018;28;20396;-91
2021/07/09 07:56:07;;;;;;;56.65;26.70;;;;;;;;;;5053005;28;20021;-92
2021/07/09 07:58:32;;;;;;;53.60;26.42;;;;;;;;;;5053207;28;20434;-91
2021/07/09 08:00:58;;;;;;;52.92;24.90;;;;;;;;;;5052686;28;20059;-91
2021/07/09 08:03:23;;;;;;;56.10;27.05;;;;;;;;;;5053134;28;20475;-91
2021/07/09 08:05:48;;;;;;;59.55;26.73;;;;;;;;;;5053975;28;20529;-91
2021/07/09 08:08:14;;;;;;;59.03;26.23;;;;;;;;;;5053236;28;20013;-91
2021/07/09 08:10:39;;;;;;;58.53;25.30;;;;;;;;;;5052860;28;20028;-90
2021/07/09 08:13:04;;;;;;;52.28;25.85;;;;;;;;;;5052926;28;20025;-91
2021/07/09 08:15:29;;;;;;;57.25;24.00;;;;;;;;;;5052683;28;20473;-90
2021/07/09 08:17:54;;;;;;;56.75;24.52;;;;;;;;;;5052657;28;20379;-91
2021/07/09 08:20:20;;;;;;;57.47;24.00;;;;;;;;;;5052632;28;20032;-91
2021/07/09 08:22:45;;;;;;;54.22;21.60;;;;;;;;;;5053295;28;20092;-91
2021/07/09 08:25:11;;;;;;;51.10;21.08;;;;;;;;;;5053721;28;20021;-91
2021/07/09 08:27:39;;;;;;;49.95;23.17;;;;;;;;;;5052637;28;20060;-91
2021/07/09 08:30:05;;;;;;;48.50;21.15;;;;;;;;;;5052704;28;20053;-91
2021/07/09 08:32:32;;;;;;;46.13;20.95;;;;;;;;;;5052693;28;20041;-90
2021/07/09 08:34:57;;;;;;;46.17;20.75;;;;;;;;;;5052626;28;20361;-91
2021/07/09 08:37:22;;;;;;;39.42;19.17;;;;;;;;;;5052180;28;20020;-91
2021/07/09 08:39:48;;;;;;;41.58;19.88;;;;;;;;;;5052208;28;20024;-90
2021/07/09 08:42:13;;;;;;;40.15;17.70;;;;;;;;;;5052551;28;20021;-91
2021/07/09 08:44:38;;;;;;;36.90;17.70;;;;;;;;;;5057201;28;20361;-91
2021/07/09 08:47:04;;;;;;;46.58;19.23;;;;;;;;;;5057532;28;20028;-90
2021/07/09 08:49:30;;;;;;;34.78;18.05;;;;;;;;;;5088284;28;20385;-90
2021/07/09 08:51:55;;;;;;;36.35;18.42;;;;;;;;;;5056409;28;20488;-91
2021/07/09 08:54:20;;;;;;;40.00;17.73;;;;;;;;;;5056328;28;20384;-91
2021/07/09 08:56:46;;;;;;;38.65;19.10;;;;;;;;;;5089845;28;20468;-91
2021/07/09 08:59:12;;;;;;;41.42;15.73;;;;;;;;;;5057279;28;20016;-92
2021/07/09 09:01:47;;;;;;;29.13;15.63;;;;;;;;;;5056444;28;20021;-91
2021/07/09 09:04:12;;;;;;;33.88;15.80;;;;;;;;;;5056218;28;20009;-91
2021/07/09 09:06:37;;;;;;;29.70;15.95;;;;;;;;;;5089813;28;20036;-91
2021/07/09 09:09:13;;;;;;;29.25;16.30;;;;;;;;;;5055843;28;20499;-92
2021/07/09 09:11:38;;;;;;;34.67;16.05;;;;;;;;;;5056095;28;20013;-91
2021/07/09 09:14:20;;;;;;;36.50;15.50;;;;;;;;;;5055828;28;20021;-89
2021/07/09 09:16:45;;;;;;;;;;;;;;;;;;5090176;28;20017;-91
2021/07/09 09:19:10;;;;;;;27.15;13.73;;;;;;;;;;5055631;28;19909;-91
2021/07/09 09:21:36;;;;;;;28.50;14.25;;;;;;;;;;5055796;28;20262;-90
2021/07/09 09:24:02;;;;;;;30.35;15.02;;;;;;;;;;5089494;28;20017;-91
2021/07/09 09:26:41;;;;;;;26.33;13.43;;;;;;;;;;5055680;28;20017;-91
2021/07/09 09:29:12;;;;;;;29.50;13.32;;;;;;;;;;5055697;28;20488;-91
2021/07/09 09:31:37;;;;;;;22.58;10.88;;;;;;;;;;5055467;28;20017;-91
2021/07/09 09:34:03;;;;;;;26.67;12.50;;;;;;;;;;5056845;28;20078;-91
2021/07/09 09:36:29;;;;;;;19.95;11.52;;;;;;;;;;5056779;28;20017;-92
2021/07/09 09:38:56;;;;;;;22.52;10.82;;;;;;;;;;5055160;28;20028;-91
2021/07/09 09:41:21;;;;;;;18.67;10.25;;;;;;;;;;5055502;28;20016;-92
2021/07/09 09:43:46;;;;;;;21.25;10.18;;;;;;;;;;5088347;28;20029;-91
2021/07/09 09:46:12;;;;;;;21.52;10.57;;;;;;;;;;5089010;28;20028;-91
2021/07/09 09:48:45;;;;;;;19.75;10.05;;;;;;;;;;5055476;28;20048;-91
2021/07/09 09:51:28;;;;;;;16.95;9.30;;;;;;;;;;5088908;28;20362;-91
2021/07/09 09:53:55;;;;;;;17.95;9.70;;;;;;;;;;5053693;28;20025;-91
2021/07/09 09:56:30;;;;;;;20.20;9.57;;;;;;;;;;5055864;28;20032;-91
2021/07/09 09:59:14;;;;;;;15.93;8.82;;;;;;;;;;5055336;28;20017;-91
2021/07/09 10:01:46;;;;;;;18.55;8.07;;;;;;;;;;5050194;28;20538;-91
2021/07/09 10:04:12;;;;;;;18.55;9.32;;;;;;;;;;5054979;28;20489;-91
2021/07/09 10:06:37;;;;;;;14.18;6.68;;;;;;;;;;5055156;28;20063;-91
2021/07/09 10:09:02;;;;;;;18.55;7.30;;;;;;;;;;5054662;28;20021;-91
2021/07/09 10:11:28;;;;;;;16.92;6.60;;;;;;;;;;5056206;28;20012;-91
2021/07/09 10:13:53;;;;;;;15.80;8.30;;;;;;;;;;5056045;28;20365;-91
2021/07/09 10:16:18;;;;;;;12.30;6.80;;;;;;;;;;5055997;28;20010;-91
2021/07/09 10:18:43;;;;;;;14.00;6.57;;;;;;;;;;5054706;28;20109;-91
2021/07/09 10:21:09;;;;;;;11.95;7.55;;;;;;;;;;5054538;28;20021;-91
2021/07/09 10:23:34;;;;;;;14.20;6.90;;;;;;;;;;5054577;28;20032;-91
2021/07/09 10:25:59;;;;;;;14.85;6.65;;;;;;;;;;5054547;28;20380;-91
2021/07/09 10:28:24;;;;;;;14.80;6.28;;;;;;;;;;5051663;28;20377;-92
2021/07/09 10:30:53;;;;;;;10.85;5.65;;;;;;;;;;5040046;28;20393;-91
2021/07/09 10:33:29;;;;;;;13.27;6.60;;;;;;;;;;5048831;28;20043;-91
2021/07/09 10:35:55;;;;;;;9.00;5.05;;;;;;;;;;5051137;28;20014;-92
2021/07/09 10:38:22;;;;;;;8.90;5.15;;;;;;;;;;5053977;28;20024;-90
2021/07/09 10:40:48;;;;;;;12.20;5.43;;;;;;;;;;5054124;28;20017;-91
2021/07/09 10:43:14;;;;;;;9.65;5.53;;;;;;;;;;5054115;28;20025;-91
2021/07/09 10:45:40;;;;;;;8.32;4.88;;;;;;;;;;5053852;28;20020;-92
2021/07/09 10:48:08;;;;;;;13.07;4.95;;;;;;;;;;5054108;28;20025;-91
2021/07/09 10:50:34;;;;;;;9.73;5.45;;;;;;;;;;5053818;28;20099;-91
2021/07/09 10:53:04;;;;;;;12.93;5.97;;;;;;;;;;5053450;28;20022;-91
2021/07/09 10:55:35;;;;;;;10.98;5.88;;;;;;;;;;5053747;28;20017;-92
2021/07/09 10:58:03;;;;;;;12.15;5.80;;;;;;;;;;5054515;28;20013;-91
2021/07/09 11:00:30;;;;;;;15.90;5.68;;;;;;;;;;5053516;28;20423;-92
2021/07/09 11:03:02;;;;;;;9.82;5.60;;;;;;;;;;5053396;28;20098;-92
2021/07/09 11:05:43;;;;;;;11.52;5.28;;;;;;;;;;5053131;28;20021;-93
2021/07/09 11:08:26;;;;;;;14.38;5.88;;;;;;;;;;5049939;28;20383;-92
2021/07/09 11:10:56;;;;;;;10.18;6.78;;;;;;;;;;5048125;28;20524;-90
2021/07/09 11:13:39;;;;;;;12.10;7.57;;;;;;;;;;5052486;28;20032;-89
2021/07/09 11:16:17;;;;;;;12.05;7.45;;;;;;;;;;5044574;28;20054;-90
2021/07/09 11:19:07;;;;;;;15.80;8.68;;;;;;;;;;5053122;28;20021;-91
2021/07/09 11:21:33;;;;;;;14.48;9.00;;;;;;;;;;5049804;28;20021;-90
2021/07/09 11:23:58;;;;;;;13.80;9.48;;;;;;;;;;5041243;28;20383;-90
2021/07/09 11:26:25;;;;;;;11.80;7.32;;;;;;;;;;5050407;28;20039;-90
2021/07/09 11:28:50;;;;;;;17.73;7.75;;;;;;;;;;5053836;28;20530;-89
2021/07/09 11:31:32;;;;;;;14.15;7.60;;;;;;;;;;5052495;28;20020;-90
2021/07/09 11:34:04;;;;;;;15.52;7.43;;;;;;;;;;5072131;28;20066;-90
2021/07/09 11:36:43;;;;;;;13.43;8.20;;;;;;;;;;5045211;28;20028;-90
2021/07/09 11:39:09;;;;;;;11.52;7.40;;;;;;;;;;5073366;28;20029;-90
2021/07/09 11:41:47;;;;;;;11.55;7.30;;;;;;;;;;5052340;28;20433;-90
2021/07/09 11:44:12;;;;;;;14.52;7.50;;;;;;;;;;5044203;28;20040;-89
2021/07/09 11:46:37;;;;;;;12.52;8.35;;;;;;;;;;5045921;28;20111;-90
2021/07/09 11:49:02;;;;;;;11.27;6.50;;;;;;;;;;5050488;28;20025;-90
2021/07/09 11:51:28;;;;;;;14.27;6.75;;;;;;;;;;5046648;28;20100;-90
2021/07/09 11:54:03;;;;;;;16.70;7.22;;;;;;;;;;5051781;28;20082;-90
2021/07/09 11:56:39;;;;;;;13.55;7.18;;;;;;;;;;5052230;28;20025;-90
2021/07/09 11:59:14;;;;;;;10.07;7.05;;;;;;;;;;5052124;28;20079;-90
2021/07/09 12:01:40;;;;;;;13.20;7.05;;;;;;;;;;5053423;28;20368;-89
2021/07/09 12:04:05;;;;;;;12.40;6.72;;;;;;;;;;5052992;28;20024;-89
2021/07/09 12:06:30;;;;;;;11.68;6.57;;;;;;;;;;5045718;28;20018;-90
2021/07/09 12:08:56;;;;;;;11.85;6.05;;;;;;;;;;5046913;28;20090;-90
2021/07/09 12:11:21;;;;;;;13.85;6.70;;;;;;;;;;5051356;28;20021;-89
2021/07/09 12:14:03;;;;;;;9.55;6.38;;;;;;;;;;5044469;28;20026;-89
2021/07/09 12:16:28;;;;;;;12.40;5.57;;;;;;;;;;5069130;28;20472;-89
2021/07/09 12:18:53;;;;;;;10.38;6.43;;;;;;;;;;5050228;28;20028;-89
2021/07/09 12:21:18;;;;;;;10.80;6.25;;;;;;;;;;5051131;28;20444;-90
2021/07/09 12:23:43;;;;;;;10.38;6.35;;;;;;;;;;5051001;28;20150;-89
2021/07/09 12:26:09;;;;;;;11.70;6.47;;;;;;;;;;5051317;28;20029;-90
2021/07/09 12:28:35;;;;;;;11.77;5.57;;;;;;;;;;5052679;28;20063;-90
2021/07/09 12:31:02;;;;;;;11.70;6.00;;;;;;;;;;5052605;28;20479;-90
2021/07/09 12:33:30;;;;;;;10.68;7.05;;;;;;;;;;5051286;28;20032;-90
2021/07/09 12:36:01;;;;;;;10.35;6.72;;;;;;;;;;5051553;28;20016;-90
2021/07/09 12:38:26;;;;;;;14.05;6.75;;;;;;;;;;5051271;28;20021;-89
2021/07/09 12:40:52;;;;;;;10.10;6.55;;;;;;;;;;5052705;28;20463;-90
2021/07/09 12:43:17;;;;;;;11.60;6.53;;;;;;;;;;5047795;28;20124;-90
2021/07/09 12:45:53;;;;;;;11.23;6.90;;;;;;;;;;5051042;28;20476;-89
2021/07/09 12:48:48;;;;;;;9.73;6.40;;;;;;;;;;5051435;28;20025;-89
2021/07/09 12:51:15;;;;;;;13.10;7.93;;;;;;;;;;5047254;28;20396;-89
2021/07/09 12:53:50;;;;;;;10.05;6.47;;;;;;;;;;5051020;28;20024;-89
2021/07/09 12:56:16;;;;;;;12.18;6.40;;;;;;;;;;5051471;28;20035;-90
2021/07/09 12:58:41;;;;;;;12.93;6.72;;;;;;;;;;5051154;28;20580;-89
2021/07/09 13:01:07;;;;;;;10.98;6.32;;;;;;;;;;5050972;28;20056;-89
2021/07/09 13:03:33;;;;;;;13.20;6.82;;;;;;;;;;5051028;28;20431;-88
2021/07/09 13:05:59;;;;;;;14.55;6.43;;;;;;;;;;5052361;28;20083;-89
2021/07/09 13:08:24;;;;;;;9.93;6.22;;;;;;;;;;5051077;28;20025;-90
2021/07/09 13:11:03;;;;;;;10.85;7.15;;;;;;;;;;5050844;28;20021;-90
2021/07/09 13:13:33;;;;;;;9.75;6.25;;;;;;;;;;5051153;28;20438;-89
2021/07/09 13:16:03;;;;;;;9.80;5.97;;;;;;;;;;5050845;28;20261;-89
2021/07/09 13:18:29;;;;;;;15.30;6.15;;;;;;;;;;5051038;28;20112;-89
2021/07/09 13:20:58;;;;;;;10.90;6.47;;;;;;;;;;5050719;28;20470;-89
2021/07/09 13:23:23;;;;;;;15.98;7.22;;;;;;;;;;5051025;28;20024;-89
2021/07/09 13:26:02;;;;;;;10.55;7.32;;;;;;;;;;5052198;28;20032;-90
2021/07/09 13:28:45;;;;;;;15.27;7.85;;;;;;;;;;5050963;28;20590;-89
2021/07/09 13:31:11;;;;;;;10.35;6.70;;;;;;;;;;5055634;28;20020;-89
2021/07/09 13:33:37;;;;;;;12.52;7.53;;;;;;;;;;5054458;28;20063;-89
2021/07/09 13:36:03;;;;;;;16.65;7.28;;;;;;;;;;5054409;28;20025;-89
2021/07/09 13:38:28;;;;;;;16.17;7.53;;;;;;;;;;5054152;28;20590;-89
2021/07/09 13:40:53;;;;;;;12.00;7.20;;;;;;;;;;5054341;28;20112;-89
2021/07/09 13:43:19;;;;;;;14.60;8.23;;;;;;;;;;5054533;28;20091;-90
2021/07/09 13:45:44;;;;;;;13.10;7.88;;;;;;;;;;5054218;28;20025;-89
2021/07/09 13:48:09;;;;;;;15.27;7.32;;;;;;;;;;5054249;28;20071;-89
2021/07/09 13:50:36;;;;;;;15.27;7.60;;;;;;;;;;5055105;28;20021;-90
2021/07/09 13:53:01;;;;;;;15.15;8.38;;;;;;;;;;5053954;28;20379;-89
2021/07/09 13:55:26;;;;;;;12.70;8.07;;;;;;;;;;5054107;28;20070;-90
2021/07/09 13:57:51;;;;;;;16.25;8.77;;;;;;;;;;5053816;28;20029;-89
2021/07/09 14:00:17;;;;;;;15.15;8.15;;;;;;;;;;5053569;28;20025;-89
2021/07/09 14:02:43;;;;;;;11.10;7.07;;;;;;;;;;5055321;28;20075;-89
2021/07/09 14:05:08;;;;;;;15.77;7.55;;;;;;;;;;5055277;28;20441;-90
2021/07/09 14:07:33;;;;;;;15.95;7.90;;;;;;;;;;5054489;28;20013;-89
2021/07/09 14:09:58;;;;;;;11.48;7.22;;;;;;;;;;5055043;28;20024;-90
2021/07/09 14:12:23;;;;;;;14.48;7.15;;;;;;;;;;5054999;28;20461;-89
2021/07/09 14:14:49;;;;;;;16.67;6.35;;;;;;;;;;5053929;28;20017;-89
2021/07/09 14:17:14;;;;;;;9.90;6.18;;;;;;;;;;5054836;28;20096;-89
2021/07/09 14:19:39;;;;;;;9.60;6.15;;;;;;;;;;5053530;28;20433;-89
2021/07/09 14:22:05;;;;;;;11.57;6.00;;;;;;;;;;5050423;28;20013;-89
2021/07/09 14:24:31;;;;;;;10.20;6.65;;;;;;;;;;5049601;28;20017;-90